sensor_id;sensor_type;location;lat;lon;timestamp;temperature;humidity
31639;DHT22;18248;51.522;7.020;2022-07-29T00:02:58;21.20;76.80
31639;DHT22;18248;51.522;7.020;2022-07-29T00:05:57;21.20;76.90
31639;DHT22;18248;51.522;7.020;2022-07-29T00:08:55;21.10;77.20
31639;DHT22;18248;51.522;7.020;2022-07-29T00:11:57;21.10;77.00
31639;DHT22;18248;51.522;7.020;2022-07-29T00:14:57;21.10;77.50
31639;DHT22;18248;51.522;7.020;2022-07-29T00:17:55;21.10;77.40
31639;DHT22;18248;51.522;7.020;2022-07-29T00:20:54;21.10;77.60
31639;DHT22;18248;51.522;7.020;2022-07-29T00:23:52;21.10;77.50
31639;DHT22;18248;51.522;7.020;2022-07-29T00:26:51;21.00;77.70
31639;DHT22;18248;51.522;7.020;2022-07-29T00:29:50;21.00;78.00
31639;DHT22;18248;51.522;7.020;2022-07-29T00:32:48;21.00;78.10
31639;DHT22;18248;51.522;7.020;2022-07-29T00:35:47;21.10;78.10
31639;DHT22;18248;51.522;7.020;2022-07-29T00:38:47;21.00;78.30
31639;DHT22;18248;51.522;7.020;2022-07-29T00:41:46;21.00;78.40
31639;DHT22;18248;51.522;7.020;2022-07-29T00:44:44;20.90;78.40
31639;DHT22;18248;51.522;7.020;2022-07-29T00:47:43;20.90;78.50
31639;DHT22;18248;51.522;7.020;2022-07-29T00:50:42;20.90;78.50
31639;DHT22;18248;51.522;7.020;2022-07-29T00:53:41;20.80;78.60
31639;DHT22;18248;51.522;7.020;2022-07-29T00:56:40;20.80;78.70
31639;DHT22;18248;51.522;7.020;2022-07-29T00:59:38;20.80;78.90
31639;DHT22;18248;51.522;7.020;2022-07-29T01:02:37;20.80;79.20
31639;DHT22;18248;51.522;7.020;2022-07-29T01:05:36;20.70;79.20
31639;DHT22;18248;51.522;7.020;2022-07-29T01:08:34;20.70;79.50
31639;DHT22;18248;51.522;7.020;2022-07-29T01:11:35;20.70;79.60
31639;DHT22;18248;51.522;7.020;2022-07-29T01:14:36;20.60;79.60
31639;DHT22;18248;51.522;7.020;2022-07-29T01:17:54;20.60;80.00
31639;DHT22;18248;51.522;7.020;2022-07-29T01:30:51;20.40;81.60
31639;DHT22;18248;51.522;7.020;2022-07-29T01:33:57;20.40;81.40
31639;DHT22;18248;51.522;7.020;2022-07-29T01:37:14;20.40;81.60
31639;DHT22;18248;51.522;7.020;2022-07-29T01:40:24;20.30;82.20
31639;DHT22;18248;51.522;7.020;2022-07-29T01:43:32;20.30;82.40
31639;DHT22;18248;51.522;7.020;2022-07-29T01:46:35;20.30;82.60
31639;DHT22;18248;51.522;7.020;2022-07-29T01:49:36;20.20;82.50
31639;DHT22;18248;51.522;7.020;2022-07-29T01:52:46;20.20;82.60
31639;DHT22;18248;51.522;7.020;2022-07-29T01:55:46;20.20;83.00
31639;DHT22;18248;51.522;7.020;2022-07-29T01:58:47;20.20;83.10
31639;DHT22;18248;51.522;7.020;2022-07-29T02:01:47;20.10;83.20
31639;DHT22;18248;51.522;7.020;2022-07-29T02:04:48;20.20;83.50
31639;DHT22;18248;51.522;7.020;2022-07-29T02:07:48;20.10;83.60
31639;DHT22;18248;51.522;7.020;2022-07-29T02:10:48;20.10;83.80
31639;DHT22;18248;51.522;7.020;2022-07-29T02:13:48;20.20;84.00
31639;DHT22;18248;51.522;7.020;2022-07-29T02:16:52;20.20;84.30
31639;DHT22;18248;51.522;7.020;2022-07-29T02:19:54;20.20;84.40
31639;DHT22;18248;51.522;7.020;2022-07-29T02:22:57;20.20;84.60
31639;DHT22;18248;51.522;7.020;2022-07-29T02:25:58;20.10;84.90
31639;DHT22;18248;51.522;7.020;2022-07-29T02:28:58;20.10;85.20
31639;DHT22;18248;51.522;7.020;2022-07-29T02:31:58;20.10;85.40
31639;DHT22;18248;51.522;7.020;2022-07-29T02:34:58;20.10;85.60
31639;DHT22;18248;51.522;7.020;2022-07-29T02:37:58;20.00;85.90
31639;DHT22;18248;51.522;7.020;2022-07-29T02:41:20;20.10;86.30
31639;DHT22;18248;51.522;7.020;2022-07-29T02:44:23;20.00;86.70
31639;DHT22;18248;51.522;7.020;2022-07-29T02:47:27;20.00;86.90
31639;DHT22;18248;51.522;7.020;2022-07-29T02:50:38;19.90;86.90
31639;DHT22;18248;51.522;7.020;2022-07-29T02:53:42;19.90;87.30
31639;DHT22;18248;51.522;7.020;2022-07-29T02:56:44;19.90;87.40
31639;DHT22;18248;51.522;7.020;2022-07-29T02:59:45;19.90;87.70
31639;DHT22;18248;51.522;7.020;2022-07-29T03:02:49;19.90;87.70
31639;DHT22;18248;51.522;7.020;2022-07-29T03:05:54;19.90;88.40
31639;DHT22;18248;51.522;7.020;2022-07-29T03:08:54;19.90;88.60
31639;DHT22;18248;51.522;7.020;2022-07-29T03:11:53;19.90;88.60
31639;DHT22;18248;51.522;7.020;2022-07-29T03:14:53;19.90;88.80
31639;DHT22;18248;51.522;7.020;2022-07-29T03:17:52;19.90;88.90
31639;DHT22;18248;51.522;7.020;2022-07-29T03:20:52;19.80;89.10
31639;DHT22;18248;51.522;7.020;2022-07-29T03:23:50;19.70;89.50
31639;DHT22;18248;51.522;7.020;2022-07-29T03:26:49;19.70;89.80
31639;DHT22;18248;51.522;7.020;2022-07-29T03:29:49;19.70;89.90
31639;DHT22;18248;51.522;7.020;2022-07-29T03:32:48;19.70;89.90
31639;DHT22;18248;51.522;7.020;2022-07-29T03:35:46;19.70;90.30
31639;DHT22;18248;51.522;7.020;2022-07-29T03:38:46;19.60;90.60
31639;DHT22;18248;51.522;7.020;2022-07-29T03:41:48;19.50;90.80
31639;DHT22;18248;51.522;7.020;2022-07-29T03:44:48;19.60;91.10
31639;DHT22;18248;51.522;7.020;2022-07-29T03:47:56;19.50;91.30
31639;DHT22;18248;51.522;7.020;2022-07-29T03:50:56;19.50;91.70
31639;DHT22;18248;51.522;7.020;2022-07-29T03:53:55;19.40;91.80
31639;DHT22;18248;51.522;7.020;2022-07-29T03:56:54;19.40;92.10
31639;DHT22;18248;51.522;7.020;2022-07-29T03:59:55;19.40;92.30
31639;DHT22;18248;51.522;7.020;2022-07-29T04:02:56;19.30;92.60
31639;DHT22;18248;51.522;7.020;2022-07-29T04:05:59;19.30;92.70
31639;DHT22;18248;51.522;7.020;2022-07-29T04:08:58;19.40;93.20
31639;DHT22;18248;51.522;7.020;2022-07-29T04:11:57;19.40;93.10
31639;DHT22;18248;51.522;7.020;2022-07-29T04:14:55;19.40;93.20
31639;DHT22;18248;51.522;7.020;2022-07-29T04:17:55;19.40;93.60
31639;DHT22;18248;51.522;7.020;2022-07-29T04:20:53;19.40;93.80
31639;DHT22;18248;51.522;7.020;2022-07-29T04:23:52;19.40;94.00
31639;DHT22;18248;51.522;7.020;2022-07-29T04:26:50;19.30;94.30
31639;DHT22;18248;51.522;7.020;2022-07-29T04:29:49;19.20;94.60
31639;DHT22;18248;51.522;7.020;2022-07-29T04:32:48;19.20;95.00
31639;DHT22;18248;51.522;7.020;2022-07-29T04:35:46;19.10;95.20
31639;DHT22;18248;51.522;7.020;2022-07-29T04:38:45;19.20;95.80
31639;DHT22;18248;51.522;7.020;2022-07-29T04:41:43;19.10;96.10
31639;DHT22;18248;51.522;7.020;2022-07-29T04:44:42;19.10;96.50
31639;DHT22;18248;51.522;7.020;2022-07-29T04:47:42;19.10;96.80
31639;DHT22;18248;51.522;7.020;2022-07-29T04:50:41;19.10;97.20
31639;DHT22;18248;51.522;7.020;2022-07-29T04:53:40;19.00;97.60
31639;DHT22;18248;51.522;7.020;2022-07-29T04:56:39;19.00;98.30
31639;DHT22;18248;51.522;7.020;2022-07-29T04:59:37;19.10;98.80
31639;DHT22;18248;51.522;7.020;2022-07-29T05:02:36;19.10;99.10
31639;DHT22;18248;51.522;7.020;2022-07-29T05:05:34;19.10;99.60
31639;DHT22;18248;51.522;7.020;2022-07-29T05:08:34;19.10;99.90
31639;DHT22;18248;51.522;7.020;2022-07-29T05:11:33;19.10;99.90
31639;DHT22;18248;51.522;7.020;2022-07-29T05:14:31;19.10;99.90
31639;DHT22;18248;51.522;7.020;2022-07-29T05:17:30;19.10;99.90
31639;DHT22;18248;51.522;7.020;2022-07-29T05:20:29;19.10;99.90
31639;DHT22;18248;51.522;7.020;2022-07-29T05:23:28;19.10;99.90
31639;DHT22;18248;51.522;7.020;2022-07-29T05:26:27;19.20;99.90
31639;DHT22;18248;51.522;7.020;2022-07-29T05:29:26;19.20;99.90
31639;DHT22;18248;51.522;7.020;2022-07-29T05:32:24;19.30;99.90
31639;DHT22;18248;51.522;7.020;2022-07-29T05:35:23;19.30;99.90
31639;DHT22;18248;51.522;7.020;2022-07-29T05:38:21;19.30;99.90
31639;DHT22;18248;51.522;7.020;2022-07-29T05:41:20;19.30;99.90
31639;DHT22;18248;51.522;7.020;2022-07-29T05:44:19;19.30;99.90
31639;DHT22;18248;51.522;7.020;2022-07-29T05:47:18;19.30;99.90
31639;DHT22;18248;51.522;7.020;2022-07-29T05:50:17;19.30;99.90
31639;DHT22;18248;51.522;7.020;2022-07-29T05:53:15;19.40;99.90
31639;DHT22;18248;51.522;7.020;2022-07-29T05:56:14;19.50;99.90
31639;DHT22;18248;51.522;7.020;2022-07-29T05:59:13;19.50;99.90
31639;DHT22;18248;51.522;7.020;2022-07-29T06:02:11;19.50;99.90
31639;DHT22;18248;51.522;7.020;2022-07-29T06:05:10;19.50;99.90
31639;DHT22;18248;51.522;7.020;2022-07-29T06:08:09;19.50;99.90
31639;DHT22;18248;51.522;7.020;2022-07-29T06:11:07;19.50;99.90
31639;DHT22;18248;51.522;7.020;2022-07-29T06:14:06;19.50;99.90
31639;DHT22;18248;51.522;7.020;2022-07-29T06:17:05;19.50;99.90
31639;DHT22;18248;51.522;7.020;2022-07-29T06:20:04;19.50;99.90
31639;DHT22;18248;51.522;7.020;2022-07-29T06:23:03;19.50;99.90
31639;DHT22;18248;51.522;7.020;2022-07-29T06:26:02;19.60;99.90
31639;DHT22;18248;51.522;7.020;2022-07-29T06:29:05;19.60;99.90
31639;DHT22;18248;51.522;7.020;2022-07-29T06:32:04;19.60;99.90
31639;DHT22;18248;51.522;7.020;2022-07-29T06:35:03;19.60;99.90
31639;DHT22;18248;51.522;7.020;2022-07-29T06:38:04;19.60;99.90
31639;DHT22;18248;51.522;7.020;2022-07-29T06:41:03;19.60;99.90
31639;DHT22;18248;51.522;7.020;2022-07-29T06:44:04;19.60;99.90
31639;DHT22;18248;51.522;7.020;2022-07-29T06:47:03;19.50;99.90
31639;DHT22;18248;51.522;7.020;2022-07-29T06:50:02;19.40;99.90
31639;DHT22;18248;51.522;7.020;2022-07-29T06:53:00;19.40;99.90
31639;DHT22;18248;51.522;7.020;2022-07-29T06:56:00;19.40;99.90
31639;DHT22;18248;51.522;7.020;2022-07-29T06:58:59;19.60;99.90
31639;DHT22;18248;51.522;7.020;2022-07-29T07:01:57;19.50;99.90
31639;DHT22;18248;51.522;7.020;2022-07-29T07:04:56;19.50;99.90
31639;DHT22;18248;51.522;7.020;2022-07-29T07:07:54;19.60;99.90
31639;DHT22;18248;51.522;7.020;2022-07-29T07:10:55;19.60;99.90
31639;DHT22;18248;51.522;7.020;2022-07-29T07:13:54;19.60;99.90
31639;DHT22;18248;51.522;7.020;2022-07-29T07:16:53;19.70;99.90
31639;DHT22;18248;51.522;7.020;2022-07-29T07:19:52;19.80;99.90
31639;DHT22;18248;51.522;7.020;2022-07-29T07:22:50;19.80;99.90
31639;DHT22;18248;51.522;7.020;2022-07-29T07:25:49;19.90;99.90
31639;DHT22;18248;51.522;7.020;2022-07-29T07:28:47;20.00;99.90
31639;DHT22;18248;51.522;7.020;2022-07-29T07:31:46;20.10;99.90
31639;DHT22;18248;51.522;7.020;2022-07-29T07:34:45;20.20;99.90
31639;DHT22;18248;51.522;7.020;2022-07-29T07:37:43;20.30;99.90
31639;DHT22;18248;51.522;7.020;2022-07-29T07:40:42;20.30;99.90
31639;DHT22;18248;51.522;7.020;2022-07-29T07:43:40;20.30;99.90
31639;DHT22;18248;51.522;7.020;2022-07-29T07:46:39;20.30;99.90
31639;DHT22;18248;51.522;7.020;2022-07-29T07:49:38;20.30;99.90
31639;DHT22;18248;51.522;7.020;2022-07-29T07:52:46;20.40;99.90
31639;DHT22;18248;51.522;7.020;2022-07-29T07:55:45;20.40;99.90
31639;DHT22;18248;51.522;7.020;2022-07-29T07:58:44;20.60;99.90
31639;DHT22;18248;51.522;7.020;2022-07-29T08:01:43;20.70;99.90
31639;DHT22;18248;51.522;7.020;2022-07-29T08:04:41;20.80;99.90
31639;DHT22;18248;51.522;7.020;2022-07-29T08:07:40;20.80;99.90
31639;DHT22;18248;51.522;7.020;2022-07-29T08:10:38;20.80;99.90
31639;DHT22;18248;51.522;7.020;2022-07-29T08:13:54;20.90;99.90
31639;DHT22;18248;51.522;7.020;2022-07-29T08:16:53;20.90;99.90
31639;DHT22;18248;51.522;7.020;2022-07-29T08:19:53;21.00;99.90
31639;DHT22;18248;51.522;7.020;2022-07-29T08:22:51;21.00;99.90
31639;DHT22;18248;51.522;7.020;2022-07-29T08:25:51;21.10;99.90
31639;DHT22;18248;51.522;7.020;2022-07-29T08:28:49;21.20;99.90
31639;DHT22;18248;51.522;7.020;2022-07-29T08:31:50;21.20;99.90
31639;DHT22;18248;51.522;7.020;2022-07-29T08:34:48;21.20;99.90
31639;DHT22;18248;51.522;7.020;2022-07-29T08:37:47;21.20;99.90
31639;DHT22;18248;51.522;7.020;2022-07-29T08:40:46;21.20;99.90
31639;DHT22;18248;51.522;7.020;2022-07-29T08:43:45;21.20;99.90
31639;DHT22;18248;51.522;7.020;2022-07-29T08:46:43;21.10;99.90
31639;DHT22;18248;51.522;7.020;2022-07-29T08:49:42;21.10;99.90
31639;DHT22;18248;51.522;7.020;2022-07-29T08:52:41;21.10;99.90
31639;DHT22;18248;51.522;7.020;2022-07-29T08:55:49;21.20;99.90
31639;DHT22;18248;51.522;7.020;2022-07-29T08:58:48;21.20;99.90
31639;DHT22;18248;51.522;7.020;2022-07-29T09:01:48;21.20;99.90
31639;DHT22;18248;51.522;7.020;2022-07-29T09:04:49;21.20;99.90
31639;DHT22;18248;51.522;7.020;2022-07-29T09:07:48;21.30;99.90
31639;DHT22;18248;51.522;7.020;2022-07-29T09:10:46;21.30;99.90
31639;DHT22;18248;51.522;7.020;2022-07-29T09:13:45;21.30;99.90
31639;DHT22;18248;51.522;7.020;2022-07-29T09:16:49;21.20;99.90
31639;DHT22;18248;51.522;7.020;2022-07-29T09:19:47;21.20;99.90
31639;DHT22;18248;51.522;7.020;2022-07-29T09:22:46;21.20;99.90
31639;DHT22;18248;51.522;7.020;2022-07-29T09:25:50;21.20;99.90
31639;DHT22;18248;51.522;7.020;2022-07-29T09:28:49;21.20;99.90
31639;DHT22;18248;51.522;7.020;2022-07-29T09:31:49;21.30;99.90
31639;DHT22;18248;51.522;7.020;2022-07-29T09:34:48;21.30;99.90
31639;DHT22;18248;51.522;7.020;2022-07-29T09:37:47;21.30;99.90
31639;DHT22;18248;51.522;7.020;2022-07-29T09:40:56;21.30;99.90
31639;DHT22;18248;51.522;7.020;2022-07-29T09:43:56;21.20;99.90
31639;DHT22;18248;51.522;7.020;2022-07-29T09:47:01;21.20;99.90
31639;DHT22;18248;51.522;7.020;2022-07-29T09:50:07;21.20;99.90
31639;DHT22;18248;51.522;7.020;2022-07-29T09:53:05;21.00;99.90
31639;DHT22;18248;51.522;7.020;2022-07-29T09:56:05;21.00;99.90
31639;DHT22;18248;51.522;7.020;2022-07-29T09:59:07;21.00;99.90
31639;DHT22;18248;51.522;7.020;2022-07-29T10:02:15;21.00;99.90
31639;DHT22;18248;51.522;7.020;2022-07-29T10:05:19;21.10;99.90
31639;DHT22;18248;51.522;7.020;2022-07-29T10:08:24;21.10;99.90
31639;DHT22;18248;51.522;7.020;2022-07-29T10:11:23;21.10;99.90
31639;DHT22;18248;51.522;7.020;2022-07-29T10:14:22;21.10;99.90
31639;DHT22;18248;51.522;7.020;2022-07-29T10:17:21;21.00;99.90
31639;DHT22;18248;51.522;7.020;2022-07-29T10:20:22;21.00;99.90
31639;DHT22;18248;51.522;7.020;2022-07-29T10:23:21;21.00;99.90
31639;DHT22;18248;51.522;7.020;2022-07-29T10:26:20;21.00;99.90
31639;DHT22;18248;51.522;7.020;2022-07-29T10:29:19;20.90;99.90
31639;DHT22;18248;51.522;7.020;2022-07-29T10:42:19;21.00;99.90
31639;DHT22;18248;51.522;7.020;2022-07-29T10:45:18;21.00;99.90
31639;DHT22;18248;51.522;7.020;2022-07-29T10:48:17;21.00;99.90
31639;DHT22;18248;51.522;7.020;2022-07-29T10:51:17;21.00;99.90
31639;DHT22;18248;51.522;7.020;2022-07-29T10:54:17;21.10;99.90
31639;DHT22;18248;51.522;7.020;2022-07-29T11:13:10;21.40;99.90
31639;DHT22;18248;51.522;7.020;2022-07-29T11:16:09;21.60;99.90
31639;DHT22;18248;51.522;7.020;2022-07-29T11:22:11;22.10;99.90
31639;DHT22;18248;51.522;7.020;2022-07-29T11:25:29;22.30;99.90
31639;DHT22;18248;51.522;7.020;2022-07-29T11:28:29;22.60;99.90
31639;DHT22;18248;51.522;7.020;2022-07-29T11:31:40;22.70;99.90
31639;DHT22;18248;51.522;7.020;2022-07-29T11:34:42;22.80;99.90
31639;DHT22;18248;51.522;7.020;2022-07-29T11:37:40;23.30;99.90
31639;DHT22;18248;51.522;7.020;2022-07-29T11:40:39;23.70;99.90
31639;DHT22;18248;51.522;7.020;2022-07-29T11:43:48;24.10;99.90
31639;DHT22;18248;51.522;7.020;2022-07-29T11:46:49;24.40;99.90
31639;DHT22;18248;51.522;7.020;2022-07-29T11:49:48;24.50;99.90
31639;DHT22;18248;51.522;7.020;2022-07-29T11:52:47;24.80;99.90
31639;DHT22;18248;51.522;7.020;2022-07-29T11:55:54;24.90;99.90
31639;DHT22;18248;51.522;7.020;2022-07-29T11:59:04;25.20;99.90
31639;DHT22;18248;51.522;7.020;2022-07-29T12:02:03;25.60;99.90
31639;DHT22;18248;51.522;7.020;2022-07-29T12:05:03;26.00;99.90
31639;DHT22;18248;51.522;7.020;2022-07-29T12:08:10;26.20;99.90
31639;DHT22;18248;51.522;7.020;2022-07-29T12:11:19;26.20;99.90
31639;DHT22;18248;51.522;7.020;2022-07-29T12:14:28;26.20;99.90
31639;DHT22;18248;51.522;7.020;2022-07-29T12:17:34;26.30;99.30
31639;DHT22;18248;51.522;7.020;2022-07-29T12:20:33;26.30;98.50
31639;DHT22;18248;51.522;7.020;2022-07-29T12:23:32;26.20;98.60
31639;DHT22;18248;51.522;7.020;2022-07-29T12:26:32;26.10;97.90
31639;DHT22;18248;51.522;7.020;2022-07-29T12:29:31;26.10;97.80
31639;DHT22;18248;51.522;7.020;2022-07-29T12:32:37;26.10;97.70
31639;DHT22;18248;51.522;7.020;2022-07-29T12:35:36;26.20;95.70
31639;DHT22;18248;51.522;7.020;2022-07-29T12:38:36;26.10;96.80
31639;DHT22;18248;51.522;7.020;2022-07-29T12:41:35;26.20;96.80
31639;DHT22;18248;51.522;7.020;2022-07-29T12:44:49;26.20;96.20
31639;DHT22;18248;51.522;7.020;2022-07-29T12:47:52;26.30;96.30
31639;DHT22;18248;51.522;7.020;2022-07-29T12:50:57;26.20;95.90
31639;DHT22;18248;51.522;7.020;2022-07-29T12:54:12;26.30;95.30
31639;DHT22;18248;51.522;7.020;2022-07-29T12:57:11;26.30;94.90
31639;DHT22;18248;51.522;7.020;2022-07-29T13:00:12;26.20;95.30
31639;DHT22;18248;51.522;7.020;2022-07-29T13:03:12;26.30;95.10
31639;DHT22;18248;51.522;7.020;2022-07-29T13:09:43;26.20;94.30
31639;DHT22;18248;51.522;7.020;2022-07-29T13:13:01;26.10;94.40
31639;DHT22;18248;51.522;7.020;2022-07-29T13:16:07;26.10;94.70
31639;DHT22;18248;51.522;7.020;2022-07-29T13:19:15;26.20;94.70
31639;DHT22;18248;51.522;7.020;2022-07-29T13:22:19;26.10;95.10
31639;DHT22;18248;51.522;7.020;2022-07-29T13:25:30;26.10;94.30
31639;DHT22;18248;51.522;7.020;2022-07-29T13:28:29;26.10;95.10
31639;DHT22;18248;51.522;7.020;2022-07-29T13:31:28;26.00;95.70
31639;DHT22;18248;51.522;7.020;2022-07-29T13:34:26;26.00;96.10
31639;DHT22;18248;51.522;7.020;2022-07-29T13:37:26;26.40;95.90
31639;DHT22;18248;51.522;7.020;2022-07-29T13:40:24;26.60;95.40
31639;DHT22;18248;51.522;7.020;2022-07-29T13:43:24;26.90;95.20
31639;DHT22;18248;51.522;7.020;2022-07-29T13:46:22;27.00;94.90
31639;DHT22;18248;51.522;7.020;2022-07-29T13:49:21;27.40;94.50
31639;DHT22;18248;51.522;7.020;2022-07-29T13:52:20;27.40;93.30
31639;DHT22;18248;51.522;7.020;2022-07-29T13:55:21;27.50;93.40
31639;DHT22;18248;51.522;7.020;2022-07-29T13:58:19;27.60;94.00
31639;DHT22;18248;51.522;7.020;2022-07-29T14:01:18;27.80;93.00
31639;DHT22;18248;51.522;7.020;2022-07-29T14:04:16;27.90;92.90
31639;DHT22;18248;51.522;7.020;2022-07-29T14:07:16;27.80;92.50
31639;DHT22;18248;51.522;7.020;2022-07-29T14:10:15;27.80;92.60
31639;DHT22;18248;51.522;7.020;2022-07-29T14:13:13;27.90;93.10
31639;DHT22;18248;51.522;7.020;2022-07-29T14:16:13;28.00;93.00
31639;DHT22;18248;51.522;7.020;2022-07-29T14:19:12;27.80;93.40
31639;DHT22;18248;51.522;7.020;2022-07-29T14:22:10;27.80;94.10
31639;DHT22;18248;51.522;7.020;2022-07-29T14:25:10;27.90;93.60
31639;DHT22;18248;51.522;7.020;2022-07-29T14:28:08;27.90;94.00
31639;DHT22;18248;51.522;7.020;2022-07-29T14:31:08;27.90;93.80
31639;DHT22;18248;51.522;7.020;2022-07-29T14:34:06;27.80;93.60
31639;DHT22;18248;51.522;7.020;2022-07-29T14:37:05;27.90;93.60
31639;DHT22;18248;51.522;7.020;2022-07-29T14:40:04;28.00;93.70
31639;DHT22;18248;51.522;7.020;2022-07-29T14:43:03;28.10;93.90
31639;DHT22;18248;51.522;7.020;2022-07-29T14:46:02;28.00;93.70
31639;DHT22;18248;51.522;7.020;2022-07-29T14:49:00;28.10;93.70
31639;DHT22;18248;51.522;7.020;2022-07-29T14:51:59;28.20;94.30
31639;DHT22;18248;51.522;7.020;2022-07-29T14:54:58;28.20;93.40
31639;DHT22;18248;51.522;7.020;2022-07-29T14:57:56;28.20;93.40
31639;DHT22;18248;51.522;7.020;2022-07-29T15:00:55;28.20;93.70
31639;DHT22;18248;51.522;7.020;2022-07-29T15:03:54;28.20;93.00
31639;DHT22;18248;51.522;7.020;2022-07-29T15:06:53;28.10;93.60
31639;DHT22;18248;51.522;7.020;2022-07-29T15:09:51;28.10;93.10
31639;DHT22;18248;51.522;7.020;2022-07-29T15:12:50;28.10;93.30
31639;DHT22;18248;51.522;7.020;2022-07-29T15:15:49;28.10;93.50
31639;DHT22;18248;51.522;7.020;2022-07-29T15:18:48;28.10;93.10
31639;DHT22;18248;51.522;7.020;2022-07-29T15:21:46;28.20;93.10
31639;DHT22;18248;51.522;7.020;2022-07-29T15:24:45;28.40;92.90
31639;DHT22;18248;51.522;7.020;2022-07-29T15:27:43;28.60;92.90
31639;DHT22;18248;51.522;7.020;2022-07-29T15:30:42;28.60;92.30
31639;DHT22;18248;51.522;7.020;2022-07-29T15:33:40;28.70;91.80
31639;DHT22;18248;51.522;7.020;2022-07-29T15:36:39;28.50;91.90
31639;DHT22;18248;51.522;7.020;2022-07-29T15:39:42;28.50;91.80
31639;DHT22;18248;51.522;7.020;2022-07-29T15:42:40;28.60;91.90
31639;DHT22;18248;51.522;7.020;2022-07-29T15:45:40;28.70;91.50
31639;DHT22;18248;51.522;7.020;2022-07-29T15:48:39;28.80;91.40
31639;DHT22;18248;51.522;7.020;2022-07-29T15:51:39;28.90;91.00
31639;DHT22;18248;51.522;7.020;2022-07-29T15:54:38;28.90;90.40
31639;DHT22;18248;51.522;7.020;2022-07-29T15:57:39;28.90;90.20
31639;DHT22;18248;51.522;7.020;2022-07-29T16:00:38;29.00;89.60
31639;DHT22;18248;51.522;7.020;2022-07-29T16:03:37;28.90;89.70
31639;DHT22;18248;51.522;7.020;2022-07-29T16:06:37;29.00;90.00
31639;DHT22;18248;51.522;7.020;2022-07-29T16:09:35;29.00;89.30
31639;DHT22;18248;51.522;7.020;2022-07-29T16:12:36;29.00;88.20
31639;DHT22;18248;51.522;7.020;2022-07-29T16:15:35;28.70;87.20
31639;DHT22;18248;51.522;7.020;2022-07-29T16:18:33;28.70;88.50
31639;DHT22;18248;51.522;7.020;2022-07-29T16:21:32;28.80;88.50
31639;DHT22;18248;51.522;7.020;2022-07-29T16:24:32;28.90;88.50
31639;DHT22;18248;51.522;7.020;2022-07-29T16:27:30;28.80;88.60
31639;DHT22;18248;51.522;7.020;2022-07-29T16:30:29;28.70;87.70
31639;DHT22;18248;51.522;7.020;2022-07-29T16:33:28;28.70;89.20
31639;DHT22;18248;51.522;7.020;2022-07-29T16:36:26;28.70;89.10
31639;DHT22;18248;51.522;7.020;2022-07-29T16:39:25;28.70;88.90
31639;DHT22;18248;51.522;7.020;2022-07-29T16:42:24;28.60;88.30
31639;DHT22;18248;51.522;7.020;2022-07-29T16:45:22;28.40;88.60
31639;DHT22;18248;51.522;7.020;2022-07-29T16:48:21;28.30;88.90
31639;DHT22;18248;51.522;7.020;2022-07-29T16:51:20;28.20;89.00
31639;DHT22;18248;51.522;7.020;2022-07-29T16:54:18;28.00;88.90
31639;DHT22;18248;51.522;7.020;2022-07-29T16:57:17;27.90;89.60
31639;DHT22;18248;51.522;7.020;2022-07-29T17:00:16;27.80;89.80
31639;DHT22;18248;51.522;7.020;2022-07-29T17:03:15;27.70;90.00
31639;DHT22;18248;51.522;7.020;2022-07-29T17:06:13;27.50;89.20
31639;DHT22;18248;51.522;7.020;2022-07-29T17:09:12;27.30;89.60
31639;DHT22;18248;51.522;7.020;2022-07-29T17:12:13;27.20;89.70
31639;DHT22;18248;51.522;7.020;2022-07-29T17:15:12;27.20;90.00
31639;DHT22;18248;51.522;7.020;2022-07-29T17:18:11;27.00;89.70
31639;DHT22;18248;51.522;7.020;2022-07-29T17:21:10;27.00;90.00
31639;DHT22;18248;51.522;7.020;2022-07-29T17:24:10;26.90;89.60
31639;DHT22;18248;51.522;7.020;2022-07-29T17:27:09;26.90;89.60
31639;DHT22;18248;51.522;7.020;2022-07-29T17:30:08;26.80;88.90
31639;DHT22;18248;51.522;7.020;2022-07-29T17:33:06;26.80;88.90
31639;DHT22;18248;51.522;7.020;2022-07-29T17:36:05;26.70;88.80
31639;DHT22;18248;51.522;7.020;2022-07-29T17:39:22;26.70;88.10
31639;DHT22;18248;51.522;7.020;2022-07-29T17:42:20;26.70;87.50
31639;DHT22;18248;51.522;7.020;2022-07-29T17:45:19;26.60;87.30
31639;DHT22;18248;51.522;7.020;2022-07-29T17:48:18;26.70;87.60
31639;DHT22;18248;51.522;7.020;2022-07-29T17:51:18;26.60;86.60
31639;DHT22;18248;51.522;7.020;2022-07-29T17:54:16;26.60;86.40
31639;DHT22;18248;51.522;7.020;2022-07-29T17:57:16;26.60;86.50
31639;DHT22;18248;51.522;7.020;2022-07-29T18:00:15;26.60;86.50
31639;DHT22;18248;51.522;7.020;2022-07-29T18:03:14;26.60;86.50
31639;DHT22;18248;51.522;7.020;2022-07-29T18:06:12;26.60;86.50
31639;DHT22;18248;51.522;7.020;2022-07-29T18:09:11;26.60;86.70
31639;DHT22;18248;51.522;7.020;2022-07-29T18:12:10;26.40;87.00
31639;DHT22;18248;51.522;7.020;2022-07-29T18:15:09;26.40;87.10
31639;DHT22;18248;51.522;7.020;2022-07-29T18:18:07;26.30;88.00
31639;DHT22;18248;51.522;7.020;2022-07-29T18:21:06;26.30;88.30
31639;DHT22;18248;51.522;7.020;2022-07-29T18:24:05;26.20;88.40
31639;DHT22;18248;51.522;7.020;2022-07-29T18:27:04;26.20;88.50
31639;DHT22;18248;51.522;7.020;2022-07-29T18:30:04;26.20;88.70
31639;DHT22;18248;51.522;7.020;2022-07-29T18:33:04;26.10;88.90
31639;DHT22;18248;51.522;7.020;2022-07-29T18:36:03;26.00;89.10
31639;DHT22;18248;51.522;7.020;2022-07-29T18:39:02;25.90;89.20
31639;DHT22;18248;51.522;7.020;2022-07-29T18:42:01;25.80;89.70
31639;DHT22;18248;51.522;7.020;2022-07-29T18:44:59;25.80;90.00
31639;DHT22;18248;51.522;7.020;2022-07-29T18:47:58;25.70;90.10
31639;DHT22;18248;51.522;7.020;2022-07-29T18:50:56;25.70;90.40
31639;DHT22;18248;51.522;7.020;2022-07-29T18:53:55;25.60;90.50
31639;DHT22;18248;51.522;7.020;2022-07-29T18:56:54;25.50;90.60
31639;DHT22;18248;51.522;7.020;2022-07-29T18:59:53;25.50;90.80
31639;DHT22;18248;51.522;7.020;2022-07-29T19:02:51;25.40;91.10
31639;DHT22;18248;51.522;7.020;2022-07-29T19:05:50;25.20;91.50
31639;DHT22;18248;51.522;7.020;2022-07-29T19:08:49;25.20;91.90
31639;DHT22;18248;51.522;7.020;2022-07-29T19:11:49;25.10;92.00
31639;DHT22;18248;51.522;7.020;2022-07-29T19:14:48;25.10;92.20
31639;DHT22;18248;51.522;7.020;2022-07-29T19:17:47;25.00;92.50
31639;DHT22;18248;51.522;7.020;2022-07-29T19:20:46;24.90;92.80
31639;DHT22;18248;51.522;7.020;2022-07-29T19:23:44;24.80;93.00
31639;DHT22;18248;51.522;7.020;2022-07-29T19:26:43;24.70;93.20
31639;DHT22;18248;51.522;7.020;2022-07-29T19:29:44;24.60;93.70
31639;DHT22;18248;51.522;7.020;2022-07-29T19:32:43;24.50;93.90
31639;DHT22;18248;51.522;7.020;2022-07-29T19:35:42;24.30;94.80
31639;DHT22;18248;51.522;7.020;2022-07-29T19:38:41;24.00;95.30
31639;DHT22;18248;51.522;7.020;2022-07-29T19:41:40;23.90;96.20